sensor_id;sensor_type;location;lat;lon;timestamp;P1;durP1;ratioP1;P2;durP2;ratioP2
41683;SDS011;27369;52.030;4.586;2022-11-23T00:03:40;28.55;;;15.32;;
41683;SDS011;27369;52.030;4.586;2022-11-23T00:06:06;28.23;;;16.70;;
41683;SDS011;27369;52.030;4.586;2022-11-23T00:08:32;24.85;;;13.15;;
41683;SDS011;27369;52.030;4.586;2022-11-23T00:10:58;22.50;;;13.70;;
41683;SDS011;27369;52.030;4.586;2022-11-23T00:13:24;26.20;;;14.90;;
41683;SDS011;27369;52.030;4.586;2022-11-23T00:15:49;25.00;;;14.20;;
41683;SDS011;27369;52.030;4.586;2022-11-23T00:18:14;25.52;;;16.05;;
41683;SDS011;27369;52.030;4.586;2022-11-23T00:20:40;28.02;;;15.15;;
41683;SDS011;27369;52.030;4.586;2022-11-23T00:23:05;25.70;;;13.20;;
41683;SDS011;27369;52.030;4.586;2022-11-23T00:25:31;21.70;;;13.18;;
41683;SDS011;27369;52.030;4.586;2022-11-23T00:27:56;27.88;;;13.25;;
41683;SDS011;27369;52.030;4.586;2022-11-23T00:30:21;20.67;;;11.70;;
41683;SDS011;27369;52.030;4.586;2022-11-23T00:32:47;21.65;;;12.82;;
41683;SDS011;27369;52.030;4.586;2022-11-23T00:35:12;24.65;;;13.20;;
41683;SDS011;27369;52.030;4.586;2022-11-23T00:37:38;25.60;;;12.80;;
41683;SDS011;27369;52.030;4.586;2022-11-23T00:40:03;24.30;;;14.88;;
41683;SDS011;27369;52.030;4.586;2022-11-23T00:42:29;21.45;;;13.18;;
41683;SDS011;27369;52.030;4.586;2022-11-23T00:44:54;25.20;;;13.17;;
41683;SDS011;27369;52.030;4.586;2022-11-23T00:47:20;19.83;;;14.23;;
41683;SDS011;27369;52.030;4.586;2022-11-23T00:49:45;22.90;;;14.82;;
41683;SDS011;27369;52.030;4.586;2022-11-23T00:52:11;24.87;;;14.93;;
41683;SDS011;27369;52.030;4.586;2022-11-23T00:54:36;26.80;;;16.63;;
41683;SDS011;27369;52.030;4.586;2022-11-23T00:57:01;27.08;;;15.57;;
41683;SDS011;27369;52.030;4.586;2022-11-23T00:59:27;29.77;;;16.40;;
41683;SDS011;27369;52.030;4.586;2022-11-23T01:01:53;23.80;;;15.45;;
41683;SDS011;27369;52.030;4.586;2022-11-23T01:04:18;22.65;;;14.45;;
41683;SDS011;27369;52.030;4.586;2022-11-23T01:06:44;23.27;;;15.18;;
41683;SDS011;27369;52.030;4.586;2022-11-23T01:09:13;24.00;;;15.00;;
41683;SDS011;27369;52.030;4.586;2022-11-23T01:11:41;30.58;;;15.85;;
41683;SDS011;27369;52.030;4.586;2022-11-23T01:14:07;25.58;;;15.77;;
41683;SDS011;27369;52.030;4.586;2022-11-23T01:16:34;26.63;;;14.10;;
41683;SDS011;27369;52.030;4.586;2022-11-23T01:19:03;26.70;;;15.77;;
41683;SDS011;27369;52.030;4.586;2022-11-23T01:21:33;29.95;;;15.43;;
41683;SDS011;27369;52.030;4.586;2022-11-23T01:24:03;21.00;;;14.27;;
41683;SDS011;27369;52.030;4.586;2022-11-23T01:26:33;24.30;;;15.00;;
41683;SDS011;27369;52.030;4.586;2022-11-23T01:28:59;25.77;;;14.52;;
41683;SDS011;27369;52.030;4.586;2022-11-23T01:31:24;26.13;;;14.75;;
41683;SDS011;27369;52.030;4.586;2022-11-23T01:33:54;25.55;;;14.38;;
41683;SDS011;27369;52.030;4.586;2022-11-23T01:36:22;20.42;;;13.20;;
41683;SDS011;27369;52.030;4.586;2022-11-23T01:38:49;23.42;;;13.55;;
41683;SDS011;27369;52.030;4.586;2022-11-23T01:41:16;22.67;;;13.13;;
41683;SDS011;27369;52.030;4.586;2022-11-23T01:43:43;27.67;;;12.95;;
41683;SDS011;27369;52.030;4.586;2022-11-23T01:46:08;26.60;;;12.57;;
41683;SDS011;27369;52.030;4.586;2022-11-23T01:48:38;23.90;;;13.93;;
41683;SDS011;27369;52.030;4.586;2022-11-23T01:51:11;24.13;;;11.20;;
41683;SDS011;27369;52.030;4.586;2022-11-23T01:53:39;24.58;;;11.55;;
41683;SDS011;27369;52.030;4.586;2022-11-23T01:56:06;22.30;;;12.57;;
41683;SDS011;27369;52.030;4.586;2022-11-23T01:58:35;23.05;;;11.25;;
41683;SDS011;27369;52.030;4.586;2022-11-23T02:01:04;22.67;;;10.05;;
41683;SDS011;27369;52.030;4.586;2022-11-23T02:03:31;18.50;;;9.40;;
41683;SDS011;27369;52.030;4.586;2022-11-23T02:06:00;17.00;;;8.13;;
41683;SDS011;27369;52.030;4.586;2022-11-23T02:08:27;17.98;;;10.05;;
41683;SDS011;27369;52.030;4.586;2022-11-23T02:10:57;21.58;;;8.73;;
41683;SDS011;27369;52.030;4.586;2022-11-23T02:13:24;14.40;;;7.85;;
41683;SDS011;27369;52.030;4.586;2022-11-23T02:15:51;23.48;;;8.32;;
41683;SDS011;27369;52.030;4.586;2022-11-23T02:18:21;17.70;;;9.15;;
41683;SDS011;27369;52.030;4.586;2022-11-23T02:20:49;14.95;;;8.52;;
41683;SDS011;27369;52.030;4.586;2022-11-23T02:26:05;20.17;;;8.43;;
41683;SDS011;27369;52.030;4.586;2022-11-23T02:28:39;22.63;;;9.23;;
41683;SDS011;27369;52.030;4.586;2022-11-23T02:31:08;15.40;;;8.90;;
41683;SDS011;27369;52.030;4.586;2022-11-23T02:33:36;19.02;;;8.55;;
41683;SDS011;27369;52.030;4.586;2022-11-23T02:36:20;15.15;;;8.90;;
41683;SDS011;27369;52.030;4.586;2022-11-23T02:39:04;12.95;;;7.80;;
41683;SDS011;27369;52.030;4.586;2022-11-23T02:41:41;18.38;;;9.32;;
41683;SDS011;27369;52.030;4.586;2022-11-23T02:46:56;14.85;;;9.40;;
41683;SDS011;27369;52.030;4.586;2022-11-23T02:49:22;21.88;;;9.77;;
41683;SDS011;27369;52.030;4.586;2022-11-23T02:51:48;18.70;;;10.40;;
41683;SDS011;27369;52.030;4.586;2022-11-23T02:54:13;14.70;;;9.52;;
41683;SDS011;27369;52.030;4.586;2022-11-23T02:56:39;14.02;;;10.15;;
41683;SDS011;27369;52.030;4.586;2022-11-23T02:59:04;13.18;;;9.18;;
41683;SDS011;27369;52.030;4.586;2022-11-23T03:01:29;16.67;;;10.87;;
41683;SDS011;27369;52.030;4.586;2022-11-23T03:03:55;14.25;;;10.43;;
41683;SDS011;27369;52.030;4.586;2022-11-23T03:06:20;17.23;;;9.65;;
41683;SDS011;27369;52.030;4.586;2022-11-23T03:08:45;15.77;;;10.23;;
41683;SDS011;27369;52.030;4.586;2022-11-23T03:11:11;17.23;;;10.23;;
41683;SDS011;27369;52.030;4.586;2022-11-23T03:13:36;19.13;;;10.97;;
41683;SDS011;27369;52.030;4.586;2022-11-23T03:16:02;23.30;;;12.27;;
41683;SDS011;27369;52.030;4.586;2022-11-23T03:18:27;17.35;;;12.75;;
41683;SDS011;27369;52.030;4.586;2022-11-23T03:20:52;15.27;;;12.23;;
41683;SDS011;27369;52.030;4.586;2022-11-23T03:23:18;17.85;;;14.73;;
41683;SDS011;27369;52.030;4.586;2022-11-23T03:25:43;21.13;;;14.03;;
41683;SDS011;27369;52.030;4.586;2022-11-23T03:28:09;17.08;;;13.80;;
41683;SDS011;27369;52.030;4.586;2022-11-23T03:30:34;15.07;;;12.90;;
41683;SDS011;27369;52.030;4.586;2022-11-23T03:32:59;21.63;;;15.10;;
41683;SDS011;27369;52.030;4.586;2022-11-23T03:35:25;17.10;;;12.45;;
41683;SDS011;27369;52.030;4.586;2022-11-23T03:37:50;18.65;;;11.55;;
41683;SDS011;27369;52.030;4.586;2022-11-23T03:40:16;17.80;;;12.00;;
41683;SDS011;27369;52.030;4.586;2022-11-23T03:42:41;15.05;;;10.57;;
41683;SDS011;27369;52.030;4.586;2022-11-23T03:45:07;14.37;;;10.17;;
41683;SDS011;27369;52.030;4.586;2022-11-23T03:47:33;14.98;;;10.73;;
41683;SDS011;27369;52.030;4.586;2022-11-23T03:49:59;14.60;;;10.23;;
41683;SDS011;27369;52.030;4.586;2022-11-23T03:52:24;11.55;;;8.63;;
41683;SDS011;27369;52.030;4.586;2022-11-23T03:54:49;14.93;;;9.68;;
41683;SDS011;27369;52.030;4.586;2022-11-23T03:57:15;14.82;;;9.02;;
41683;SDS011;27369;52.030;4.586;2022-11-23T03:59:40;16.25;;;8.75;;
41683;SDS011;27369;52.030;4.586;2022-11-23T04:02:06;14.98;;;8.88;;
41683;SDS011;27369;52.030;4.586;2022-11-23T04:04:32;12.75;;;8.32;;
41683;SDS011;27369;52.030;4.586;2022-11-23T04:09:24;16.40;;;8.77;;
41683;SDS011;27369;52.030;4.586;2022-11-23T04:11:49;13.50;;;8.63;;
41683;SDS011;27369;52.030;4.586;2022-11-23T04:14:15;13.95;;;8.02;;
41683;SDS011;27369;52.030;4.586;2022-11-23T04:16:40;17.63;;;8.75;;
41683;SDS011;27369;52.030;4.586;2022-11-23T04:19:06;15.23;;;7.70;;
41683;SDS011;27369;52.030;4.586;2022-11-23T04:21:31;12.77;;;7.93;;
41683;SDS011;27369;52.030;4.586;2022-11-23T04:23:57;13.55;;;7.63;;
41683;SDS011;27369;52.030;4.586;2022-11-23T04:26:22;12.27;;;7.72;;
41683;SDS011;27369;52.030;4.586;2022-11-23T04:28:47;10.77;;;7.28;;
41683;SDS011;27369;52.030;4.586;2022-11-23T04:31:13;14.25;;;8.48;;
41683;SDS011;27369;52.030;4.586;2022-11-23T04:33:38;14.43;;;7.83;;
41683;SDS011;27369;52.030;4.586;2022-11-23T04:36:04;14.73;;;8.70;;
41683;SDS011;27369;52.030;4.586;2022-11-23T04:38:29;13.63;;;8.88;;
41683;SDS011;27369;52.030;4.586;2022-11-23T04:40:55;17.38;;;7.57;;
41683;SDS011;27369;52.030;4.586;2022-11-23T04:43:20;13.45;;;8.25;;
41683;SDS011;27369;52.030;4.586;2022-11-23T04:45:46;13.25;;;7.35;;
41683;SDS011;27369;52.030;4.586;2022-11-23T04:48:11;15.50;;;7.25;;
41683;SDS011;27369;52.030;4.586;2022-11-23T04:50:37;14.85;;;7.80;;
41683;SDS011;27369;52.030;4.586;2022-11-23T04:53:03;11.23;;;5.80;;
41683;SDS011;27369;52.030;4.586;2022-11-23T04:55:29;17.50;;;6.43;;
41683;SDS011;27369;52.030;4.586;2022-11-23T04:57:55;14.35;;;6.45;;
41683;SDS011;27369;52.030;4.586;2022-11-23T05:00:20;8.63;;;5.40;;
41683;SDS011;27369;52.030;4.586;2022-11-23T05:02:46;11.48;;;4.95;;
41683;SDS011;27369;52.030;4.586;2022-11-23T05:05:11;12.23;;;5.32;;
41683;SDS011;27369;52.030;4.586;2022-11-23T05:07:36;9.73;;;5.53;;
41683;SDS011;27369;52.030;4.586;2022-11-23T05:10:03;15.23;;;5.88;;
41683;SDS011;27369;52.030;4.586;2022-11-23T05:12:28;12.10;;;5.05;;
41683;SDS011;27369;52.030;4.586;2022-11-23T05:14:54;10.83;;;4.73;;
41683;SDS011;27369;52.030;4.586;2022-11-23T05:17:19;13.15;;;5.57;;
41683;SDS011;27369;52.030;4.586;2022-11-23T05:19:44;9.20;;;5.75;;
41683;SDS011;27369;52.030;4.586;2022-11-23T05:22:10;13.50;;;5.22;;
41683;SDS011;27369;52.030;4.586;2022-11-23T05:24:35;12.25;;;5.55;;
41683;SDS011;27369;52.030;4.586;2022-11-23T05:27:01;16.45;;;6.38;;
41683;SDS011;27369;52.030;4.586;2022-11-23T05:29:26;17.30;;;7.40;;
41683;SDS011;27369;52.030;4.586;2022-11-23T05:31:52;14.85;;;7.38;;
41683;SDS011;27369;52.030;4.586;2022-11-23T05:34:18;17.70;;;8.13;;
41683;SDS011;27369;52.030;4.586;2022-11-23T05:36:43;16.08;;;8.68;;
41683;SDS011;27369;52.030;4.586;2022-11-23T05:39:09;17.80;;;9.20;;
41683;SDS011;27369;52.030;4.586;2022-11-23T05:41:35;22.00;;;9.20;;
41683;SDS011;27369;52.030;4.586;2022-11-23T05:44:01;19.80;;;9.00;;
41683;SDS011;27369;52.030;4.586;2022-11-23T05:48:52;17.03;;;9.00;;
41683;SDS011;27369;52.030;4.586;2022-11-23T05:51:17;13.57;;;8.20;;
41683;SDS011;27369;52.030;4.586;2022-11-23T05:53:42;17.27;;;8.27;;
41683;SDS011;27369;52.030;4.586;2022-11-23T05:56:08;18.53;;;8.73;;
41683;SDS011;27369;52.030;4.586;2022-11-23T05:58:33;14.50;;;8.40;;
41683;SDS011;27369;52.030;4.586;2022-11-23T06:00:59;16.08;;;8.07;;
41683;SDS011;27369;52.030;4.586;2022-11-23T06:05:50;17.87;;;7.27;;
41683;SDS011;27369;52.030;4.586;2022-11-23T06:08:16;19.65;;;8.40;;
41683;SDS011;27369;52.030;4.586;2022-11-23T06:10:41;22.92;;;7.82;;
41683;SDS011;27369;52.030;4.586;2022-11-23T06:13:07;17.57;;;7.40;;
41683;SDS011;27369;52.030;4.586;2022-11-23T06:15:32;17.17;;;7.20;;
41683;SDS011;27369;52.030;4.586;2022-11-23T06:18:00;15.90;;;6.00;;
41683;SDS011;27369;52.030;4.586;2022-11-23T06:20:29;16.85;;;5.35;;
41683;SDS011;27369;52.030;4.586;2022-11-23T06:22:55;17.13;;;5.72;;
41683;SDS011;27369;52.030;4.586;2022-11-23T06:25:21;11.43;;;4.18;;
41683;SDS011;27369;52.030;4.586;2022-11-23T06:27:56;16.40;;;5.18;;
41683;SDS011;27369;52.030;4.586;2022-11-23T06:30:24;9.88;;;3.67;;
41683;SDS011;27369;52.030;4.586;2022-11-23T06:32:50;13.52;;;4.55;;
41683;SDS011;27369;52.030;4.586;2022-11-23T06:35:15;14.90;;;4.20;;
41683;SDS011;27369;52.030;4.586;2022-11-23T06:37:41;19.00;;;3.00;;
41683;SDS011;27369;52.030;4.586;2022-11-23T06:42:33;17.15;;;2.90;;
41683;SDS011;27369;52.030;4.586;2022-11-23T06:44:59;20.92;;;3.83;;
41683;SDS011;27369;52.030;4.586;2022-11-23T06:47:24;13.55;;;2.88;;
41683;SDS011;27369;52.030;4.586;2022-11-23T06:49:49;13.18;;;2.42;;
41683;SDS011;27369;52.030;4.586;2022-11-23T06:52:15;12.17;;;2.63;;
41683;SDS011;27369;52.030;4.586;2022-11-23T06:54:40;16.03;;;3.07;;
41683;SDS011;27369;52.030;4.586;2022-11-23T06:57:09;15.53;;;2.63;;
41683;SDS011;27369;52.030;4.586;2022-11-23T06:59:34;22.88;;;2.90;;
41683;SDS011;27369;52.030;4.586;2022-11-23T07:02:00;13.37;;;3.13;;
41683;SDS011;27369;52.030;4.586;2022-11-23T07:04:25;8.73;;;2.65;;
41683;SDS011;27369;52.030;4.586;2022-11-23T07:06:51;26.00;;;3.37;;
41683;SDS011;27369;52.030;4.586;2022-11-23T07:09:16;11.40;;;2.13;;
41683;SDS011;27369;52.030;4.586;2022-11-23T07:11:42;11.65;;;3.45;;
41683;SDS011;27369;52.030;4.586;2022-11-23T07:14:07;14.80;;;2.90;;
41683;SDS011;27369;52.030;4.586;2022-11-23T07:16:33;19.65;;;4.15;;
41683;SDS011;27369;52.030;4.586;2022-11-23T07:18:58;14.88;;;2.88;;
41683;SDS011;27369;52.030;4.586;2022-11-23T07:21:24;12.68;;;3.03;;
41683;SDS011;27369;52.030;4.586;2022-11-23T07:23:50;15.65;;;3.45;;
41683;SDS011;27369;52.030;4.586;2022-11-23T07:26:15;16.42;;;3.22;;
41683;SDS011;27369;52.030;4.586;2022-11-23T07:28:41;15.03;;;3.03;;
41683;SDS011;27369;52.030;4.586;2022-11-23T07:31:06;14.57;;;3.13;;
41683;SDS011;27369;52.030;4.586;2022-11-23T07:33:32;12.23;;;3.15;;
41683;SDS011;27369;52.030;4.586;2022-11-23T07:35:59;17.45;;;2.63;;
41683;SDS011;27369;52.030;4.586;2022-11-23T07:38:26;14.70;;;2.92;;
41683;SDS011;27369;52.030;4.586;2022-11-23T07:40:52;18.23;;;3.58;;
41683;SDS011;27369;52.030;4.586;2022-11-23T07:43:17;8.52;;;2.70;;
41683;SDS011;27369;52.030;4.586;2022-11-23T07:45:43;17.98;;;2.47;;
41683;SDS011;27369;52.030;4.586;2022-11-23T07:48:08;14.35;;;2.78;;
41683;SDS011;27369;52.030;4.586;2022-11-23T07:50:34;16.00;;;3.58;;
41683;SDS011;27369;52.030;4.586;2022-11-23T07:55:27;22.40;;;3.60;;
41683;SDS011;27369;52.030;4.586;2022-11-23T07:57:54;20.73;;;2.90;;
41683;SDS011;27369;52.030;4.586;2022-11-23T08:00:23;18.20;;;3.03;;
41683;SDS011;27369;52.030;4.586;2022-11-23T08:02:50;22.20;;;3.00;;
41683;SDS011;27369;52.030;4.586;2022-11-23T08:05:16;15.23;;;2.70;;
41683;SDS011;27369;52.030;4.586;2022-11-23T08:07:42;16.60;;;2.90;;
41683;SDS011;27369;52.030;4.586;2022-11-23T08:10:09;16.23;;;2.97;;
41683;SDS011;27369;52.030;4.586;2022-11-23T08:12:35;19.67;;;2.50;;
41683;SDS011;27369;52.030;4.586;2022-11-23T08:15:01;12.97;;;2.43;;
41683;SDS011;27369;52.030;4.586;2022-11-23T08:17:26;13.45;;;3.03;;
41683;SDS011;27369;52.030;4.586;2022-11-23T08:19:51;16.37;;;2.67;;
41683;SDS011;27369;52.030;4.586;2022-11-23T08:22:17;13.50;;;2.83;;
41683;SDS011;27369;52.030;4.586;2022-11-23T08:24:42;25.13;;;2.63;;
41683;SDS011;27369;52.030;4.586;2022-11-23T08:27:08;17.00;;;3.40;;
41683;SDS011;27369;52.030;4.586;2022-11-23T08:29:33;17.20;;;3.37;;
41683;SDS011;27369;52.030;4.586;2022-11-23T08:31:59;15.13;;;3.80;;
41683;SDS011;27369;52.030;4.586;2022-11-23T08:34:24;12.80;;;2.58;;
41683;SDS011;27369;52.030;4.586;2022-11-23T08:36:49;14.40;;;2.35;;
41683;SDS011;27369;52.030;4.586;2022-11-23T08:39:15;11.48;;;2.83;;
41683;SDS011;27369;52.030;4.586;2022-11-23T08:41:42;18.58;;;3.40;;
41683;SDS011;27369;52.030;4.586;2022-11-23T08:44:07;20.40;;;2.78;;
41683;SDS011;27369;52.030;4.586;2022-11-23T08:46:35;17.95;;;3.58;;
41683;SDS011;27369;52.030;4.586;2022-11-23T08:49:00;15.48;;;2.63;;
41683;SDS011;27369;52.030;4.586;2022-11-23T08:51:25;12.90;;;2.33;;
41683;SDS011;27369;52.030;4.586;2022-11-23T08:53:51;15.85;;;3.00;;
41683;SDS011;27369;52.030;4.586;2022-11-23T08:56:16;17.23;;;2.00;;
41683;SDS011;27369;52.030;4.586;2022-11-23T08:58:43;11.52;;;2.30;;
41683;SDS011;27369;52.030;4.586;2022-11-23T09:01:10;12.77;;;2.97;;
41683;SDS011;27369;52.030;4.586;2022-11-23T09:03:37;13.30;;;2.80;;
41683;SDS011;27369;52.030;4.586;2022-11-23T09:06:03;12.13;;;2.08;;
41683;SDS011;27369;52.030;4.586;2022-11-23T09:08:29;17.67;;;2.90;;
41683;SDS011;27369;52.030;4.586;2022-11-23T09:11:05;14.48;;;2.72;;
41683;SDS011;27369;52.030;4.586;2022-11-23T09:13:33;11.00;;;2.67;;
41683;SDS011;27369;52.030;4.586;2022-11-23T09:16:00;16.85;;;3.17;;
41683;SDS011;27369;52.030;4.586;2022-11-23T09:18:26;21.63;;;3.55;;
41683;SDS011;27369;52.030;4.586;2022-11-23T09:20:54;12.23;;;2.65;;
41683;SDS011;27369;52.030;4.586;2022-11-23T09:23:20;15.63;;;2.63;;
41683;SDS011;27369;52.030;4.586;2022-11-23T09:25:46;12.30;;;2.53;;
41683;SDS011;27369;52.030;4.586;2022-11-23T09:28:12;14.80;;;2.60;;
41683;SDS011;27369;52.030;4.586;2022-11-23T09:30:39;14.43;;;2.40;;
41683;SDS011;27369;52.030;4.586;2022-11-23T09:35:32;23.98;;;2.75;;
41683;SDS011;27369;52.030;4.586;2022-11-23T09:37:57;10.93;;;2.40;;
41683;SDS011;27369;52.030;4.586;2022-11-23T09:40:24;14.50;;;2.30;;
41683;SDS011;27369;52.030;4.586;2022-11-23T09:42:56;14.73;;;2.22;;
41683;SDS011;27369;52.030;4.586;2022-11-23T09:53:47;14.27;;;2.13;;
41683;SDS011;27369;52.030;4.586;2022-11-23T09:56:18;12.55;;;2.50;;
41683;SDS011;27369;52.030;4.586;2022-11-23T09:58:46;17.27;;;2.38;;
41683;SDS011;27369;52.030;4.586;2022-11-23T10:01:17;13.98;;;2.75;;
41683;SDS011;27369;52.030;4.586;2022-11-23T10:03:43;16.50;;;2.42;;
41683;SDS011;27369;52.030;4.586;2022-11-23T10:06:20;14.23;;;2.25;;
41683;SDS011;27369;52.030;4.586;2022-11-23T10:09:00;11.05;;;2.38;;
41683;SDS011;27369;52.030;4.586;2022-11-23T10:12:00;10.43;;;2.67;;
41683;SDS011;27369;52.030;4.586;2022-11-23T10:20:28;6.97;;;1.90;;
41683;SDS011;27369;52.030;4.586;2022-11-23T10:26:11;21.35;;;3.88;;
41683;SDS011;27369;52.030;4.586;2022-11-23T10:28:39;14.70;;;2.90;;
41683;SDS011;27369;52.030;4.586;2022-11-23T10:31:12;11.40;;;2.55;;
41683;SDS011;27369;52.030;4.586;2022-11-23T10:36:35;14.93;;;3.20;;
41683;SDS011;27369;52.030;4.586;2022-11-23T10:39:04;15.23;;;3.10;;
41683;SDS011;27369;52.030;4.586;2022-11-23T10:41:36;11.02;;;2.40;;
41683;SDS011;27369;52.030;4.586;2022-11-23T10:46:50;12.23;;;2.63;;
41683;SDS011;27369;52.030;4.586;2022-11-23T10:49:17;10.35;;;2.65;;
41683;SDS011;27369;52.030;4.586;2022-11-23T10:54:27;13.35;;;2.47;;
41683;SDS011;27369;52.030;4.586;2022-11-23T10:56:53;12.05;;;3.40;;
41683;SDS011;27369;52.030;4.586;2022-11-23T11:02:01;12.75;;;2.65;;
41683;SDS011;27369;52.030;4.586;2022-11-23T11:04:41;15.90;;;3.72;;
41683;SDS011;27369;52.030;4.586;2022-11-23T11:07:28;10.27;;;1.92;;
41683;SDS011;27369;52.030;4.586;2022-11-23T11:09:58;12.20;;;3.28;;
41683;SDS011;27369;52.030;4.586;2022-11-23T11:12:26;12.55;;;4.00;;
41683;SDS011;27369;52.030;4.586;2022-11-23T11:14:54;10.38;;;2.30;;
41683;SDS011;27369;52.030;4.586;2022-11-23T11:17:30;9.10;;;2.60;;
41683;SDS011;27369;52.030;4.586;2022-11-23T11:19:57;9.68;;;2.35;;
41683;SDS011;27369;52.030;4.586;2022-11-23T11:22:33;15.60;;;2.65;;
41683;SDS011;27369;52.030;4.586;2022-11-23T11:25:00;6.68;;;1.90;;
41683;SDS011;27369;52.030;4.586;2022-11-23T11:27:29;10.40;;;2.22;;
41683;SDS011;27369;52.030;4.586;2022-11-23T11:30:05;6.68;;;2.00;;
41683;SDS011;27369;52.030;4.586;2022-11-23T11:32:46;8.90;;;2.40;;
41683;SDS011;27369;52.030;4.586;2022-11-23T11:35:53;10.02;;;2.83;;
41683;SDS011;27369;52.030;4.586;2022-11-23T11:38:28;13.15;;;2.40;;
41683;SDS011;27369;52.030;4.586;2022-11-23T11:40:59;11.73;;;2.13;;
41683;SDS011;27369;52.030;4.586;2022-11-23T11:43:31;9.10;;;2.42;;
41683;SDS011;27369;52.030;4.586;2022-11-23T11:46:01;10.27;;;2.08;;
41683;SDS011;27369;52.030;4.586;2022-11-23T11:48:41;10.20;;;2.28;;
41683;SDS011;27369;52.030;4.586;2022-11-23T11:56:50;6.13;;;1.63;;
41683;SDS011;27369;52.030;4.586;2022-11-23T11:59:24;9.10;;;1.63;;
41683;SDS011;27369;52.030;4.586;2022-11-23T12:04:59;10.38;;;1.80;;
41683;SDS011;27369;52.030;4.586;2022-11-23T12:07:33;9.35;;;1.98;;
41683;SDS011;27369;52.030;4.586;2022-11-23T12:10:23;7.88;;;1.80;;
41683;SDS011;27369;52.030;4.586;2022-11-23T12:12:59;6.70;;;1.45;;
41683;SDS011;27369;52.030;4.586;2022-11-23T12:15:27;9.73;;;1.98;;
41683;SDS011;27369;52.030;4.586;2022-11-23T12:21:04;8.35;;;1.77;;
41683;SDS011;27369;52.030;4.586;2022-11-23T12:46:58;6.00;;;1.20;;
41683;SDS011;27369;52.030;4.586;2022-11-23T12:52:38;7.28;;;1.38;;
41683;SDS011;27369;52.030;4.586;2022-11-23T12:55:33;12.68;;;1.88;;
41683;SDS011;27369;52.030;4.586;2022-11-23T12:58:22;8.35;;;1.38;;
41683;SDS011;27369;52.030;4.586;2022-11-23T13:00:56;7.60;;;2.25;;
41683;SDS011;27369;52.030;4.586;2022-11-23T13:03:39;7.13;;;1.83;;
41683;SDS011;27369;52.030;4.586;2022-11-23T13:09:13;8.52;;;1.75;;
41683;SDS011;27369;52.030;4.586;2022-11-23T13:11:58;7.85;;;2.42;;
41683;SDS011;27369;52.030;4.586;2022-11-23T13:23:19;8.77;;;1.70;;
41683;SDS011;27369;52.030;4.586;2022-11-23T13:26:10;4.97;;;2.03;;
41683;SDS011;27369;52.030;4.586;2022-11-23T13:28:48;7.82;;;1.77;;
41683;SDS011;27369;52.030;4.586;2022-11-23T13:33:41;6.10;;;1.88;;
41683;SDS011;27369;52.030;4.586;2022-11-23T13:36:08;9.27;;;1.95;;
41683;SDS011;27369;52.030;4.586;2022-11-23T13:38:37;7.57;;;2.20;;
41683;SDS011;27369;52.030;4.586;2022-11-23T13:41:54;3.80;;;1.33;;
41683;SDS011;27369;52.030;4.586;2022-11-23T13:44:21;5.63;;;1.70;;
41683;SDS011;27369;52.030;4.586;2022-11-23T13:47:05;7.63;;;1.77;;
41683;SDS011;27369;52.030;4.586;2022-11-23T13:49:43;10.52;;;1.70;;
41683;SDS011;27369;52.030;4.586;2022-11-23T13:52:19;7.97;;;1.75;;
41683;SDS011;27369;52.030;4.586;2022-11-23T13:57:44;10.85;;;2.53;;
41683;SDS011;27369;52.030;4.586;2022-11-23T14:00:47;10.52;;;2.10;;
41683;SDS011;27369;52.030;4.586;2022-11-23T14:09:13;10.48;;;2.30;;
41683;SDS011;27369;52.030;4.586;2022-11-23T14:12:03;10.20;;;2.22;;
41683;SDS011;27369;52.030;4.586;2022-11-23T14:26:02;8.48;;;1.50;;
41683;SDS011;27369;52.030;4.586;2022-11-23T14:34:17;9.20;;;1.73;;
41683;SDS011;27369;52.030;4.586;2022-11-23T14:36:59;6.13;;;1.50;;
41683;SDS011;27369;52.030;4.586;2022-11-23T14:42:29;8.07;;;1.67;;
41683;SDS011;27369;52.030;4.586;2022-11-23T14:45:00;6.68;;;1.60;;
41683;SDS011;27369;52.030;4.586;2022-11-23T14:47:29;9.88;;;2.00;;
41683;SDS011;27369;52.030;4.586;2022-11-23T14:49:56;5.90;;;2.08;;
41683;SDS011;27369;52.030;4.586;2022-11-23T14:52:28;4.70;;;1.75;;
41683;SDS011;27369;52.030;4.586;2022-11-23T14:54:59;7.18;;;2.17;;
41683;SDS011;27369;52.030;4.586;2022-11-23T14:57:39;7.63;;;2.08;;
41683;SDS011;27369;52.030;4.586;2022-11-23T15:02:55;5.63;;;2.00;;
41683;SDS011;27369;52.030;4.586;2022-11-23T15:05:28;4.35;;;1.58;;
41683;SDS011;27369;52.030;4.586;2022-11-23T15:10:39;7.65;;;2.22;;
41683;SDS011;27369;52.030;4.586;2022-11-23T15:13:17;8.63;;;2.10;;
41683;SDS011;27369;52.030;4.586;2022-11-23T15:15:51;8.35;;;1.90;;
41683;SDS011;27369;52.030;4.586;2022-11-23T15:21:02;7.88;;;1.92;;
41683;SDS011;27369;52.030;4.586;2022-11-23T15:23:32;8.85;;;2.42;;
41683;SDS011;27369;52.030;4.586;2022-11-23T15:26:01;5.70;;;2.28;;
41683;SDS011;27369;52.030;4.586;2022-11-23T15:28:29;10.27;;;3.22;;
41683;SDS011;27369;52.030;4.586;2022-11-23T15:30:56;7.00;;;2.30;;
41683;SDS011;27369;52.030;4.586;2022-11-23T15:33:22;7.20;;;2.78;;
41683;SDS011;27369;52.030;4.586;2022-11-23T15:35:48;8.70;;;2.80;;
41683;SDS011;27369;52.030;4.586;2022-11-23T15:38:15;8.32;;;3.13;;
41683;SDS011;27369;52.030;4.586;2022-11-23T15:40:43;9.20;;;3.20;;
41683;SDS011;27369;52.030;4.586;2022-11-23T15:43:12;5.68;;;2.80;;
41683;SDS011;27369;52.030;4.586;2022-11-23T15:51:03;8.73;;;4.25;;
41683;SDS011;27369;52.030;4.586;2022-11-23T15:53:46;5.25;;;3.47;;
41683;SDS011;27369;52.030;4.586;2022-11-23T15:56:33;5.90;;;3.53;;
41683;SDS011;27369;52.030;4.586;2022-11-23T15:59:01;8.35;;;3.47;;
41683;SDS011;27369;52.030;4.586;2022-11-23T16:01:47;11.18;;;3.60;;
41683;SDS011;27369;52.030;4.586;2022-11-23T16:04:27;5.95;;;3.63;;
41683;SDS011;27369;52.030;4.586;2022-11-23T16:06:54;7.72;;;3.50;;
41683;SDS011;27369;52.030;4.586;2022-11-23T16:12:22;8.10;;;3.70;;
41683;SDS011;27369;52.030;4.586;2022-11-23T16:14:50;7.57;;;3.75;;
41683;SDS011;27369;52.030;4.586;2022-11-23T16:17:18;12.02;;;4.70;;
41683;SDS011;27369;52.030;4.586;2022-11-23T16:19:51;7.03;;;3.72;;
41683;SDS011;27369;52.030;4.586;2022-11-23T16:25:05;5.68;;;3.42;;
41683;SDS011;27369;52.030;4.586;2022-11-23T16:27:33;6.57;;;3.30;;
41683;SDS011;27369;52.030;4.586;2022-11-23T16:30:00;5.82;;;3.17;;
41683;SDS011;27369;52.030;4.586;2022-11-23T16:32:28;6.65;;;3.13;;
41683;SDS011;27369;52.030;4.586;2022-11-23T16:35:07;5.45;;;2.75;;
41683;SDS011;27369;52.030;4.586;2022-11-23T16:37:39;5.32;;;3.08;;
41683;SDS011;27369;52.030;4.586;2022-11-23T16:40:05;6.20;;;2.67;;
41683;SDS011;27369;52.030;4.586;2022-11-23T16:42:31;6.35;;;2.88;;
41683;SDS011;27369;52.030;4.586;2022-11-23T16:44:56;5.22;;;2.97;;
41683;SDS011;27369;52.030;4.586;2022-11-23T16:47:23;3.78;;;2.85;;
41683;SDS011;27369;52.030;4.586;2022-11-23T16:49:49;8.93;;;3.13;;
41683;SDS011;27369;52.030;4.586;2022-11-23T16:52:16;4.72;;;2.60;;
41683;SDS011;27369;52.030;4.586;2022-11-23T16:54:42;6.57;;;3.08;;
41683;SDS011;27369;52.030;4.586;2022-11-23T16:57:12;7.80;;;3.13;;
41683;SDS011;27369;52.030;4.586;2022-11-23T16:59:42;7.55;;;3.47;;
41683;SDS011;27369;52.030;4.586;2022-11-23T17:02:09;6.15;;;3.95;;
41683;SDS011;27369;52.030;4.586;2022-11-23T17:04:38;7.70;;;4.00;;
41683;SDS011;27369;52.030;4.586;2022-11-23T17:07:03;7.18;;;4.05;;
41683;SDS011;27369;52.030;4.586;2022-11-23T17:09:29;8.60;;;4.10;;
41683;SDS011;27369;52.030;4.586;2022-11-23T17:11:54;8.27;;;4.32;;
41683;SDS011;27369;52.030;4.586;2022-11-23T17:14:19;10.02;;;3.78;;
41683;SDS011;27369;52.030;4.586;2022-11-23T17:16:46;7.82;;;3.90;;